Time;durP1;ratioP1;P1;durP2;ratioP2;P2;SDS_P1;SDS_P2;PMS_P1;PMS_P2;Temp;Humidity;BMP_temperature;BMP_pressure;BME280_temperature;BME280_humidity;BME280_pressure;Samples;Min_cycle;Max_cycle;Signal;HPM_P1;HPM_P2
2023/05/18 00:01:57;;;;;;;2.37;1.00;;;;;;;12.15;100.00;64227.28;5072048;28;20208;-56
2023/05/18 00:04:22;;;;;;;1.70;1.20;;;;;;;12.04;100.00;64212.72;5071902;28;20305;-57
2023/05/18 00:06:55;;;;;;;1.97;1.10;;;;;;;11.98;100.00;64206.13;5071708;28;20185;-56
2023/05/18 00:09:23;;;;;;;1.00;0.80;;;;;;;11.94;100.00;64206.81;5070847;28;20219;-58
2023/05/18 00:11:48;;;;;;;1.33;0.93;;;;;;;11.85;100.00;64189.91;5053880;28;20193;-58
2023/05/18 00:14:14;;;;;;;2.40;0.90;;;;;;;11.90;100.00;64197.38;5070472;28;20705;-59
2023/05/18 00:16:39;;;;;;;3.60;0.70;;;;;;;11.84;100.00;64191.31;5071326;28;20267;-59
2023/05/18 00:19:05;;;;;;;1.00;0.90;;;;;;;11.88;100.00;64197.69;5071956;28;20293;-59
2023/05/18 00:21:32;;;;;;;2.73;1.00;;;;;;;11.92;100.00;64200.09;5071707;28;20543;-58
2023/05/18 00:23:58;;;;;;;0.87;0.83;;;;;;;11.95;100.00;64203.38;5053894;28;20219;-60
2023/05/18 00:26:23;;;;;;;1.57;0.90;;;;;;;11.99;100.00;64207.22;5071720;28;20177;-58
2023/05/18 00:28:48;;;;;;;0.87;0.80;;;;;;;12.11;100.00;64222.91;5071509;28;20313;-58
2023/05/18 00:31:14;;;;;;;3.60;0.97;;;;;;;12.18;100.00;64228.06;5053929;28;20290;-59
2023/05/18 00:33:39;;;;;;;0.53;0.53;;;;;;;12.12;100.00;64224.00;5071414;28;20330;-58
2023/05/18 00:36:05;;;;;;;2.40;0.90;;;;;;;12.20;100.00;64233.31;5071450;28;20204;-57
2023/05/18 00:38:30;;;;;;;1.03;0.80;;;;;;;12.04;100.00;64215.25;5071606;28;20302;-56
2023/05/18 00:40:56;;;;;;;1.47;0.60;;;;;;;12.17;100.00;64227.50;5071463;28;20189;-55
2023/05/18 00:43:22;;;;;;;0.80;0.70;;;;;;;12.11;100.00;64218.41;5071446;28;20362;-57
2023/05/18 00:45:48;;;;;;;0.67;0.67;;;;;;;12.11;100.00;64220.94;5071237;28;20275;-57
2023/05/18 00:48:13;;;;;;;1.13;0.67;;;;;;;12.22;100.00;64232.44;5071260;28;20209;-57
2023/05/18 00:50:39;;;;;;;1.40;0.80;;;;;;;12.15;100.00;64224.75;5071451;28;20199;-56
2023/05/18 00:53:05;;;;;;;3.27;0.80;;;;;;;12.08;100.00;64220.16;5070925;28;20240;-58
2023/05/18 00:55:30;;;;;;;0.67;0.67;;;;;;;12.08;100.00;64219.63;5071297;28;20189;-57
2023/05/18 00:57:57;;;;;;;2.37;1.17;;;;;;;12.04;100.00;64213.25;5071238;28;20555;-57
2023/05/18 01:00:23;;;;;;;0.83;0.50;;;;;;;12.12;100.00;64224.53;5071025;28;20575;-56
2023/05/18 01:02:49;;;;;;;0.50;0.50;;;;;;;12.05;100.00;64216.88;5071200;28;20191;-57
2023/05/18 01:05:16;;;;;;;2.07;0.60;;;;;;;12.13;100.00;64222.56;5070952;28;20262;-56
2023/05/18 01:07:42;;;;;;;1.47;0.60;;;;;;;12.09;100.00;64215.66;5071000;28;20192;-57
2023/05/18 01:10:12;;;;;;;7.80;0.70;;;;;;;12.06;100.00;64214.91;5070956;28;20670;-58
2023/05/18 01:12:59;;;;;;;0.97;0.60;;;;;;;12.12;100.00;64224.00;5071174;28;20661;-57
2023/05/18 01:15:32;;;;;;;0.77;0.50;;;;;;;12.04;100.00;64212.72;5071186;28;20243;-60
2023/05/18 01:18:16;;;;;;;1.17;0.90;;;;;;;12.05;100.00;64213.78;5071149;28;20193;-58
2023/05/18 01:20:56;;;;;;;1.20;0.60;;;;;;;12.09;100.00;64220.72;5070857;28;20212;-58
2023/05/18 01:23:53;;;;;;;0.60;0.60;;;;;;;12.20;100.00;64230.78;5070940;28;20216;-58
2023/05/18 01:26:28;;;;;;;0.70;0.67;;;;;;;12.25;100.00;64233.19;5070578;28;20277;-56
2023/05/18 01:28:55;;;;;;;3.70;2.57;;;;;;;12.12;100.00;64224.00;5070768;28;20204;-57
2023/05/18 01:31:22;;;;;;;4.10;2.67;;;;;;;12.02;100.00;64211.06;5070743;28;20193;-58
2023/05/18 01:33:47;;;;;;;2.20;1.93;;;;;;;11.91;100.00;64199.00;5052557;28;20255;-58
2023/05/18 01:36:13;;;;;;;4.27;1.37;;;;;;;11.81;100.00;64190.56;5070668;28;20267;-56
2023/05/18 01:38:39;;;;;;;3.93;1.40;;;;;;;11.80;100.00;64189.47;5070367;28;20201;-56
2023/05/18 01:41:18;;;;;;;2.30;1.70;;;;;;;11.79;100.00;64185.84;5070352;28;20242;-56
2023/05/18 01:44:00;;;;;;;1.80;1.10;;;;;;;11.73;100.00;64179.28;5070828;28;20583;-56
2023/05/18 01:46:44;;;;;;;1.73;1.00;;;;;;;11.73;100.00;64182.34;5070653;28;20192;-57
2023/05/18 01:49:24;;;;;;;1.20;1.00;;;;;;;11.86;100.00;64193.50;5071041;28;20212;-57
2023/05/18 01:51:52;;;;;;;1.17;0.97;;;;;;;11.90;100.00;64199.88;5070496;28;20180;-58
2023/05/18 01:54:21;;;;;;;3.17;1.00;;;;;;;11.92;100.00;64202.63;5070154;28;20266;-58
2023/05/18 01:56:48;;;;;;;1.10;0.80;;;;;;;11.91;100.00;64200.97;5070282;28;20184;-58
2023/05/18 01:59:14;;;;;;;1.10;1.00;;;;;;;12.02;100.00;64213.03;5070290;28;20216;-55
2023/05/18 02:01:40;;;;;;;1.10;0.90;;;;;;;11.93;100.00;64203.72;5052116;28;20276;-56
2023/05/18 02:04:09;;;;;;;1.93;1.00;;;;;;;11.92;100.00;64202.63;5072025;28;20216;-56
2023/05/18 02:06:35;;;;;;;0.90;0.80;;;;;;;11.92;100.00;64197.03;5073678;28;20271;-56
2023/05/18 02:09:02;;;;;;;1.40;1.20;;;;;;;11.95;100.00;64205.34;5073875;28;20224;-55
2023/05/18 02:11:28;;;;;;;9.20;7.43;;;;;;;12.02;100.00;64210.53;5073818;28;20268;-55
2023/05/18 02:13:53;;;;;;;1.00;1.00;;;;;;;12.00;100.00;64205.81;5073821;28;20656;-56
2023/05/18 02:16:19;;;;;;;3.27;0.80;;;;;;;12.10;100.00;64221.81;5073874;28;20192;-60
2023/05/18 02:18:44;;;;;;;1.43;0.90;;;;;;;12.32;100.00;64245.94;5073531;28;20212;-59
2023/05/18 02:21:10;;;;;;;2.20;0.80;;;;;;;12.31;100.00;64239.78;5073671;28;20188;-59
2023/05/18 02:23:35;;;;;;;1.20;1.00;;;;;;;12.32;100.00;64249.00;5073474;28;20266;-58
2023/05/18 02:26:01;;;;;;;0.93;0.83;;;;;;;12.41;100.00;64255.78;5073746;28;20571;-59
2023/05/18 02:28:26;;;;;;;0.90;0.70;;;;;;;12.30;100.00;64244.28;5073784;28;20255;-59
2023/05/18 02:30:52;;;;;;;0.77;0.77;;;;;;;12.41;100.00;64255.78;5073588;28;20254;-58
2023/05/18 02:33:18;;;;;;;0.80;0.80;;;;;;;12.35;100.00;64246.69;5073333;28;20239;-60
2023/05/18 02:35:44;;;;;;;1.10;0.70;;;;;;;12.40;100.00;64252.72;5073352;28;20193;-57
2023/05/18 02:38:10;;;;;;;1.40;0.80;;;;;;;12.36;100.00;64250.84;5073509;28;20571;-56
2023/05/18 02:40:36;;;;;;;2.90;0.93;;;;;;;12.37;100.00;64251.97;5073249;28;20185;-57
2023/05/18 02:43:01;;;;;;;0.70;0.70;;;;;;;12.35;100.00;64249.75;5073218;28;20252;-59
2023/05/18 02:45:27;;;;;;;0.50;0.50;;;;;;;12.26;100.00;64239.34;5073322;28;20678;-58
2023/05/18 02:47:52;;;;;;;0.60;0.60;;;;;;;12.40;100.00;64249.66;5073346;28;20177;-58
2023/05/18 02:50:18;;;;;;;1.20;0.70;;;;;;;12.37;100.00;64248.88;5073271;28;20180;-58
2023/05/18 02:52:44;;;;;;;0.50;0.50;;;;;;;12.34;100.00;64246.13;5073350;28;20220;-59
2023/05/18 02:55:12;;;;;;;0.60;0.60;;;;;;;12.31;100.00;64244.81;5073077;28;20209;-57
2023/05/18 02:57:38;;;;;;;0.80;0.60;;;;;;;12.39;100.00;64248.53;5073081;28;20188;-59
2023/05/18 03:00:09;;;;;;;1.07;0.97;;;;;;;12.48;100.00;64260.94;5072846;28;20717;-57
2023/05/18 03:02:37;;;;;;;3.73;0.90;;;;;;;12.63;100.00;64277.94;5073032;28;20250;-58
2023/05/18 03:05:04;;;;;;;0.53;0.53;;;;;;;12.70;100.00;64284.53;5072703;28;20716;-59
2023/05/18 03:07:31;;;;;;;0.97;0.70;;;;;;;12.71;100.00;64285.63;5072690;28;20259;-59
2023/05/18 03:09:57;;;;;;;2.00;0.80;;;;;;;12.78;100.00;64293.84;5072756;28;20213;-58
2023/05/18 03:12:23;;;;;;;0.80;0.80;;;;;;;12.81;100.00;64297.13;5072984;28;20208;-59
2023/05/18 03:14:48;;;;;;;2.43;0.87;;;;;;;12.71;100.00;64285.63;5071598;28;20643;-59
2023/05/18 03:17:14;;;;;;;1.87;0.63;;;;;;;12.58;100.00;64271.91;5071004;28;20196;-59
2023/05/18 03:19:39;;;;;;;1.53;0.77;;;;;;;12.58;100.00;64272.44;5072847;28;20274;-56
2023/05/18 03:22:05;;;;;;;0.90;0.60;;;;;;;12.54;100.00;64273.13;5072637;28;20204;-56
2023/05/18 03:24:39;;;;;;;0.93;0.70;;;;;;;12.60;100.00;64271.59;5072822;28;20213;-61
2023/05/18 03:27:06;;;;;;;0.70;0.70;;;;;;;12.56;100.00;64269.72;5072648;28;20177;-59
2023/05/18 03:29:33;;;;;;;0.70;0.70;;;;;;;12.60;100.00;64272.13;5072497;28;20705;-62
2023/05/18 03:31:58;;;;;;;2.20;1.10;;;;;;;12.69;100.00;64281.44;5072625;28;20576;-57
2023/05/18 03:34:24;;;;;;;1.60;1.27;;;;;;;12.57;100.00;64270.81;5072243;28;20212;-57
2023/05/18 03:36:51;;;;;;;1.93;0.97;;;;;;;12.54;100.00;64267.53;5072404;28;20192;-56
2023/05/18 03:39:16;;;;;;;1.00;1.00;;;;;;;12.44;100.00;64259.09;5072773;28;20221;-60
2023/05/18 03:41:42;;;;;;;1.10;1.10;;;;;;;12.34;100.00;64245.59;5072518;28;20200;-59
2023/05/18 03:44:08;;;;;;;1.87;1.40;;;;;;;12.30;100.00;64241.22;5072564;28;20213;-56
2023/05/18 03:46:33;;;;;;;1.47;1.37;;;;;;;12.22;100.00;64232.97;5072435;28;20204;-56
2023/05/18 03:48:58;;;;;;;2.10;1.47;;;;;;;12.17;100.00;64226.94;5072152;28;20220;-55
2023/05/18 03:51:25;;;;;;;4.27;2.67;;;;;;;12.26;100.00;64234.84;5072356;28;20212;-55
2023/05/18 03:53:51;;;;;;;1.40;1.30;;;;;;;12.27;100.00;64240.44;5053970;28;20229;-57
2023/05/18 03:56:16;;;;;;;1.57;1.47;;;;;;;12.32;100.00;64243.41;5072126;28;20196;-55
2023/05/18 03:58:43;;;;;;;1.50;1.40;;;;;;;12.19;100.00;64229.13;5072396;28;20204;-57
2023/05/18 04:01:08;;;;;;;1.40;1.30;;;;;;;12.20;100.00;64230.25;5072035;28;20300;-57
2023/05/18 04:03:34;;;;;;;2.00;1.87;;;;;;;12.19;100.00;64226.63;5072288;28;20682;-57
2023/05/18 04:05:59;;;;;;;2.60;1.90;;;;;;;12.15;100.00;64224.75;5072069;28;20185;-56
2023/05/18 04:08:24;;;;;;;1.90;1.70;;;;;;;12.15;100.00;64224.75;5072012;28;20292;-57
2023/05/18 04:10:51;;;;;;;2.17;2.00;;;;;;;12.20;100.00;64230.78;5071751;28;20189;-59
2023/05/18 04:13:16;;;;;;;3.57;3.13;;;;;;;12.22;100.00;64232.97;5071810;28;20216;-58
2023/05/18 04:15:42;;;;;;;2.20;2.00;;;;;;;12.31;100.00;64240.31;5071793;28;20239;-58
2023/05/18 04:18:09;;;;;;;4.53;3.00;;;;;;;12.23;100.00;64231.00;5071958;28;20219;-57
2023/05/18 04:20:36;;;;;;;3.20;2.90;;;;;;;12.15;100.00;64227.28;5071625;28;20659;-58
2023/05/18 04:23:02;;;;;;;3.43;2.60;;;;;;;12.19;100.00;64229.69;5071699;28;20223;-59
2023/05/18 04:25:27;;;;;;;3.47;2.60;;;;;;;12.22;100.00;64232.44;5071578;28;20223;-58
2023/05/18 04:27:54;;;;;;;3.37;3.07;;;;;;;12.38;100.00;64250.53;5071485;28;20595;-56
2023/05/18 04:30:22;;;;;;;3.57;3.10;;;;;;;12.30;100.00;64241.75;5071464;28;20189;-58
2023/05/18 04:32:48;;;;;;;5.77;3.20;;;;;;;12.32;100.00;64245.94;5071541;28;20223;-57
2023/05/18 04:35:14;;;;;;;2.90;2.70;;;;;;;12.30;100.00;64241.75;5071579;28;20303;-57
2023/05/18 04:37:41;;;;;;;3.47;3.17;;;;;;;12.32;100.00;64245.94;5071583;28;20208;-59
2023/05/18 04:40:11;;;;;;;4.77;3.60;;;;;;;12.37;100.00;64246.34;5071556;28;20266;-59
2023/05/18 04:42:37;;;;;;;3.27;2.90;;;;;;;12.20;100.00;64230.25;5071558;28;20283;-56
2023/05/18 04:45:04;;;;;;;11.27;4.67;;;;;;;12.44;100.00;64254.03;5071297;28;20244;-58
2023/05/18 04:47:30;;;;;;;4.60;3.87;;;;;;;12.47;100.00;64257.31;5071377;28;20192;-57
2023/05/18 04:49:55;;;;;;;4.57;4.17;;;;;;;12.36;100.00;64250.31;5071149;28;20598;-58
2023/05/18 04:52:21;;;;;;;4.47;4.00;;;;;;;12.41;100.00;64253.25;5071422;28;20322;-58
2023/05/18 04:54:47;;;;;;;4.20;3.80;;;;;;;12.41;100.00;64253.25;5070963;28;20303;-59
2023/05/18 04:57:13;;;;;;;5.50;4.37;;;;;;;12.47;100.00;64259.84;5069596;28;20189;-58
2023/05/18 04:59:40;;;;;;;5.40;4.10;;;;;;;12.51;100.00;64264.78;5053115;28;20220;-58
2023/05/18 05:02:05;;;;;;;5.30;3.90;;;;;;;12.45;100.00;64258.19;5071113;28;20204;-59
2023/05/18 05:04:31;;;;;;;4.87;4.03;;;;;;;12.42;100.00;64251.84;5070859;28;20671;-58
2023/05/18 05:06:57;;;;;;;6.60;4.67;;;;;;;12.36;100.00;64247.78;5070986;28;20276;-59
2023/05/18 05:09:22;;;;;;;5.80;3.90;;;;;;;12.33;100.00;64247.56;5071137;28;20304;-59
2023/05/18 05:11:48;;;;;;;4.80;4.20;;;;;;;12.41;100.00;64253.81;5070970;28;20188;-59
2023/05/18 05:14:13;;;;;;;6.37;4.73;;;;;;;12.45;100.00;64257.66;5070878;28;20658;-60
2023/05/18 05:16:39;;;;;;;6.17;3.83;;;;;;;12.37;100.00;64248.88;5070637;28;20287;-59
2023/05/18 05:19:05;;;;;;;7.03;4.90;;;;;;;12.39;100.00;64248.53;5070926;28;20223;-58
2023/05/18 05:21:31;;;;;;;7.03;4.93;;;;;;;12.34;100.00;64245.59;5070703;28;20195;-58
2023/05/18 05:23:57;;;;;;;8.93;4.07;;;;;;;12.29;100.00;64240.09;5070457;28;20216;-56
2023/05/18 05:26:22;;;;;;;6.47;5.07;;;;;;;12.38;100.00;64244.94;5070439;28;20192;-61
2023/05/18 05:28:48;;;;;;;8.47;6.47;;;;;;;12.42;100.00;64254.91;5070996;28;20572;-58
2023/05/18 05:31:13;;;;;;;6.03;5.20;;;;;;;12.35;100.00;64244.72;5069227;28;20891;-56
2023/05/18 05:33:39;;;;;;;7.23;4.80;;;;;;;12.31;100.00;64242.31;5069007;28;20216;-56
2023/05/18 05:36:05;;;;;;;5.97;4.50;;;;;;;12.41;100.00;64253.81;5068681;28;20345;-57
2023/05/18 05:38:31;;;;;;;5.17;4.23;;;;;;;12.41;100.00;64253.25;5069703;28;20262;-57
2023/05/18 05:40:57;;;;;;;8.03;5.17;;;;;;;12.45;100.00;64258.19;5070370;28;20193;-59
2023/05/18 05:43:23;;;;;;;5.97;4.50;;;;;;;12.43;100.00;64256.00;5070267;28;20231;-58
2023/05/18 05:45:49;;;;;;;6.27;4.90;;;;;;;12.41;100.00;64253.81;5070264;28;20191;-60
2023/05/18 05:48:14;;;;;;;7.70;5.67;;;;;;;12.39;100.00;64251.63;5070510;28;20567;-56
2023/05/18 05:50:40;;;;;;;6.87;5.53;;;;;;;12.41;100.00;64251.28;5070469;28;20212;-57
2023/05/18 05:53:05;;;;;;;9.17;6.10;;;;;;;12.52;100.00;64265.88;5070542;28;20645;-57
2023/05/18 05:55:31;;;;;;;13.10;6.47;;;;;;;12.57;100.00;64270.81;5070321;28;20209;-57
2023/05/18 05:57:56;;;;;;;9.40;7.17;;;;;;;12.50;100.00;64263.16;5070412;28;20185;-58
2023/05/18 06:00:23;;;;;;;6.63;5.70;;;;;;;12.45;100.00;64260.72;5052108;28;20184;-57
2023/05/18 06:02:49;;;;;;;6.73;5.70;;;;;;;12.40;100.00;64252.19;5070110;28;20184;-58
2023/05/18 06:05:14;;;;;;;8.27;5.60;;;;;;;12.36;100.00;64245.25;5069942;28;20185;-57
2023/05/18 06:07:40;;;;;;;8.67;6.60;;;;;;;12.30;100.00;64241.75;5069814;28;20199;-57
2023/05/18 06:10:06;;;;;;;9.37;7.50;;;;;;;12.27;100.00;64235.94;5069815;28;20203;-59
2023/05/18 06:12:31;;;;;;;13.23;7.53;;;;;;;12.27;100.00;64240.44;5069844;28;20603;-58
2023/05/18 06:14:56;;;;;;;8.73;6.60;;;;;;;12.24;100.00;64235.16;5069745;28;20220;-59
2023/05/18 06:17:24;;;;;;;9.37;6.67;;;;;;;12.22;100.00;64234.97;5069824;28;20205;-60
2023/05/18 06:19:49;;;;;;;10.17;6.60;;;;;;;12.22;100.00;64232.44;5069922;28;20313;-59
2023/05/18 06:22:15;;;;;;;8.83;6.53;;;;;;;12.23;100.00;64231.00;5069643;28;20678;-59
2023/05/18 06:24:40;;;;;;;7.20;6.47;;;;;;;12.31;100.00;64242.84;5069732;28;20213;-59
2023/05/18 06:27:07;;;;;;;9.03;6.63;;;;;;;12.33;100.00;64244.50;5069479;28;20224;-59
2023/05/18 06:29:33;;;;;;;5.77;4.80;;;;;;;12.29;100.00;64240.09;5069595;28;20204;-59
2023/05/18 06:31:58;;;;;;;7.37;4.80;;;;;;;12.39;100.00;64251.06;5069573;28;20192;-59
2023/05/18 06:34:24;;;;;;;8.30;6.03;;;;;;;12.34;100.00;64248.13;5069775;28;20224;-58
2023/05/18 06:36:49;;;;;;;6.23;4.77;;;;;;;12.33;100.00;64247.03;5069615;28;20196;-59
2023/05/18 06:39:15;;;;;;;6.63;5.50;;;;;;;12.34;100.00;64243.06;5069859;28;20204;-59
2023/05/18 06:41:40;;;;;;;8.17;6.20;;;;;;;12.36;100.00;64245.25;5069633;28;20705;-59
2023/05/18 06:44:06;;;;;;;11.07;6.10;;;;;;;12.35;100.00;64247.25;5069275;28;20307;-59
2023/05/18 06:46:31;;;;;;;8.80;5.80;;;;;;;12.35;100.00;64247.25;5069454;28;20224;-59
2023/05/18 06:48:57;;;;;;;5.80;4.67;;;;;;;12.39;100.00;64251.63;5069319;28;20213;-58
2023/05/18 06:51:22;;;;;;;8.60;6.10;;;;;;;12.42;100.00;64254.38;5073006;28;20287;-62
2023/05/18 06:53:49;;;;;;;10.83;6.67;;;;;;;12.45;100.00;64257.66;5072783;28;20224;-59
2023/05/18 06:56:15;;;;;;;9.53;5.50;;;;;;;12.50;100.00;64260.63;5072729;28;20192;-58
2023/05/18 06:58:41;;;;;;;9.80;7.07;;;;;;;12.62;100.00;64273.78;5072633;28;20288;-58
2023/05/18 07:01:08;;;;;;;11.30;6.73;;;;;;;12.64;100.00;64278.50;5072503;28;20235;-58
2023/05/18 07:03:34;;;;;;;7.87;6.07;;;;;;;12.57;100.00;64268.28;5072871;28;20262;-57
2023/05/18 07:06:00;;;;;;;10.97;7.00;;;;;;;12.70;100.00;64284.53;5072232;28;20615;-57
2023/05/18 07:08:26;;;;;;;13.20;6.40;;;;;;;12.68;100.00;64283.41;5072440;28;20220;-57
2023/05/18 07:10:51;;;;;;;9.87;7.03;;;;;;;12.68;100.00;64282.88;5072324;28;20181;-57
2023/05/18 07:13:18;;;;;;;12.17;6.50;;;;;;;12.68;100.00;64279.81;5072233;28;20592;-58
2023/05/18 07:15:43;;;;;;;7.53;6.13;;;;;;;12.70;100.00;64284.53;5072267;28;20302;-58
2023/05/18 07:18:09;;;;;;;10.27;7.33;;;;;;;12.71;100.00;64283.63;5072418;28;20776;-57
2023/05/18 07:20:34;;;;;;;8.30;5.67;;;;;;;12.71;100.00;64288.13;5072168;28;20262;-56
2023/05/18 07:23:00;;;;;;;9.87;7.80;;;;;;;12.66;100.00;64283.75;5072435;28;20276;-58
2023/05/18 07:25:26;;;;;;;12.40;7.03;;;;;;;12.68;100.00;64282.88;5072237;28;20189;-57
2023/05/18 07:27:53;;;;;;;8.23;7.07;;;;;;;12.97;100.00;64317.22;5072301;28;20244;-57
2023/05/18 07:30:19;;;;;;;10.03;6.87;;;;;;;12.92;100.00;64308.66;5071977;28;20682;-58
2023/05/18 07:32:45;;;;;;;9.47;6.77;;;;;;;13.00;100.00;64317.44;5072081;28;20204;-58
2023/05/18 07:35:11;;;;;;;9.07;6.40;;;;;;;13.08;100.00;64326.22;5072306;28;20211;-55
2023/05/18 07:37:36;;;;;;;8.60;7.13;;;;;;;13.28;100.00;64346.22;5071841;28;20694;-57
2023/05/18 07:40:03;;;;;;;11.53;6.60;;;;;;;13.13;100.00;64329.19;5072136;28;20697;-60
2023/05/18 07:42:29;;;;;;;10.10;7.47;;;;;;;13.18;100.00;64337.22;5072370;28;20204;-60
2023/05/18 07:44:55;;;;;;;11.93;7.17;;;;;;;13.18;100.00;64337.22;5071838;28;20216;-59
2023/05/18 07:47:20;;;;;;;9.20;7.93;;;;;;;13.27;100.00;64345.09;5072275;28;20197;-60
2023/05/18 07:49:47;;;;;;;9.57;7.90;;;;;;;13.07;100.00;64325.69;5072098;28;20345;-60
2023/05/18 07:52:19;;;;;;;10.20;7.30;;;;;;;13.02;100.00;64319.63;5070453;28;20184;-62
2023/05/18 07:54:45;;;;;;;11.60;8.00;;;;;;;12.96;100.00;64316.13;5071715;28;20224;-60
2023/05/18 07:57:11;;;;;;;10.37;7.27;;;;;;;13.18;100.00;64339.75;5071851;28;20185;-61
2023/05/18 07:59:37;;;;;;;14.43;8.03;;;;;;;13.07;100.00;64325.16;5071723;28;20204;-59
2023/05/18 08:02:04;;;;;;;11.30;7.30;;;;;;;13.03;100.00;64320.75;5071043;28;20544;-60
2023/05/18 08:04:30;;;;;;;8.77;7.37;;;;;;;13.24;100.00;64341.81;5071881;28;20205;-60
2023/05/18 08:06:59;;;;;;;10.60;7.53;;;;;;;13.27;100.00;64350.16;5071942;28;20196;-61
2023/05/18 08:09:25;;;;;;;11.23;7.80;;;;;;;13.19;100.00;64338.84;5071950;28;20209;-59
2023/05/18 08:11:51;;;;;;;10.43;7.63;;;;;;;13.23;100.00;64340.72;5071647;28;20188;-60
2023/05/18 08:14:16;;;;;;;12.73;7.87;;;;;;;13.33;100.00;64356.75;5071806;28;20234;-59
2023/05/18 08:16:42;;;;;;;13.53;8.27;;;;;;;13.29;100.00;64349.28;5071804;28;20185;-57
2023/05/18 08:19:07;;;;;;;9.17;7.33;;;;;;;13.22;100.00;64339.06;5072429;28;20661;-59
2023/05/18 08:21:33;;;;;;;10.23;7.47;;;;;;;13.20;100.00;64337.44;5071673;28;20243;-59
2023/05/18 08:23:58;;;;;;;12.13;8.33;;;;;;;13.06;100.00;64329.66;5071470;28;20244;-58
2023/05/18 08:26:25;;;;;;;9.17;7.30;;;;;;;13.31;100.00;64352.00;5071446;28;20188;-58
2023/05/18 08:28:51;;;;;;;12.65;7.85;;;;;;;13.34;100.00;64355.31;5071526;28;20220;-60
2023/05/18 08:31:16;;;;;;;9.77;6.97;;;;;;;13.28;100.00;64346.22;5071222;28;20286;-59
2023/05/18 08:33:42;;;;;;;10.60;7.70;;;;;;;13.34;100.00;64355.31;5071456;28;20684;-59
2023/05/18 08:36:08;;;;;;;9.07;7.50;;;;;;;13.26;100.00;64346.53;5071237;28;20192;-57
2023/05/18 08:38:34;;;;;;;11.40;7.93;;;;;;;12.99;100.00;64313.81;5071446;28;20205;-57
2023/05/18 08:41:18;;;;;;;12.50;7.90;;;;;;;13.09;100.00;64327.88;5071506;28;20200;-59
2023/05/18 08:43:47;;;;;;;12.00;6.97;;;;;;;13.13;100.00;64331.72;5071292;28;20299;-56
2023/05/18 08:46:22;;;;;;;8.93;6.77;;;;;;;13.15;100.00;64334.47;5069876;28;20201;-57
2023/05/18 08:48:51;;;;;;;11.60;7.32;;;;;;;13.07;100.00;64325.16;5071766;28;20696;-57
2023/05/18 08:51:19;;;;;;;10.50;7.43;;;;;;;13.22;100.00;64342.16;5053628;28;20235;-58
2023/05/18 08:53:51;;;;;;;11.67;6.90;;;;;;;13.43;100.00;64364.66;5071205;28;20674;-57
2023/05/18 08:56:18;;;;;;;12.47;7.00;;;;;;;13.31;100.00;64349.50;5071401;28;20200;-57
2023/05/18 08:58:47;;;;;;;10.03;7.10;;;;;;;13.32;100.00;64350.03;5071230;28;20220;-57
2023/05/18 09:01:13;;;;;;;11.70;6.60;;;;;;;13.37;100.00;64358.06;5069569;28;20196;-57
2023/05/18 09:03:40;;;;;;;10.15;6.72;;;;;;;13.41;100.00;64363.00;5070970;28;20757;-58
2023/05/18 09:06:06;;;;;;;14.33;6.70;;;;;;;13.57;100.00;64376.94;5070930;28;20242;-57
2023/05/18 09:08:32;;;;;;;8.47;6.80;;;;;;;13.64;100.00;64387.16;5070995;28;20311;-58
2023/05/18 09:11:00;;;;;;;9.07;6.23;;;;;;;13.56;100.00;64381.44;5070804;28;20192;-56
2023/05/18 09:13:27;;;;;;;11.23;7.23;;;;;;;13.40;100.00;64361.91;5070664;28;20215;-58
2023/05/18 09:15:53;;;;;;;11.23;6.50;;;;;;;13.41;100.00;64359.94;5070762;28;20739;-57
2023/05/18 09:18:18;;;;;;;9.53;6.40;;;;;;;13.31;100.00;64351.47;5070529;28;20307;-59
2023/05/18 09:20:44;;;;;;;9.70;6.30;;;;;;;13.27;100.00;64347.09;5070943;28;20260;-57
2023/05/18 09:23:13;;;;;;;13.17;7.37;;;;;;;13.30;100.00;64350.94;5070823;28;20678;-57
2023/05/18 09:25:48;;;;;;;9.97;5.73;;;;;;;13.24;100.00;64344.34;5052637;28;20189;-56
2023/05/18 09:28:37;;;;;;;12.70;7.50;;;;;;;13.33;100.00;64353.69;5052615;28;20236;-57
2023/05/18 09:31:06;;;;;;;11.88;6.43;;;;;;;13.38;100.00;64359.16;5070455;28;20188;-57
2023/05/18 09:33:34;;;;;;;8.60;6.03;;;;;;;13.35;100.00;64353.88;5070609;28;20693;-57
2023/05/18 09:35:59;;;;;;;12.93;6.73;;;;;;;13.11;100.00;64327.00;5070417;28;20189;-58
2023/05/18 09:38:26;;;;;;;10.70;7.27;;;;;;;13.00;100.00;64318.00;5052187;28;20212;-56
2023/05/18 09:40:52;;;;;;;11.97;7.20;;;;;;;13.04;100.00;64322.41;5070383;28;20189;-57
2023/05/18 09:43:18;;;;;;;9.65;6.18;;;;;;;12.86;100.00;64302.06;5069824;28;20223;-55
2023/05/18 09:45:46;;;;;;;9.43;6.33;;;;;;;12.87;100.00;64303.72;5070470;28;20192;-59
2023/05/18 09:48:12;;;;;;;9.87;6.50;;;;;;;13.06;100.00;64324.03;5068673;28;20213;-57
2023/05/18 09:50:38;;;;;;;12.87;7.47;;;;;;;12.98;100.00;64318.31;5068364;28;20633;-59
2023/05/18 09:53:08;;;;;;;10.57;6.80;;;;;;;12.91;100.00;64307.56;5070494;28;20224;-57
2023/05/18 09:55:51;;;;;;;7.73;6.43;;;;;;;13.00;100.00;64315.47;5070307;28;20247;-57
2023/05/18 09:58:17;;;;;;;8.40;6.93;;;;;;;13.00;100.00;64317.44;5070375;28;20224;-56
2023/05/18 10:00:50;;;;;;;13.07;6.87;;;;;;;13.00;100.00;64318.00;5070086;28;20250;-57
2023/05/18 10:03:18;;;;;;;11.90;6.83;;;;;;;13.20;100.00;64339.97;5052361;28;20224;-58
2023/05/18 10:05:44;;;;;;;10.37;7.53;;;;;;;13.27;100.00;64347.63;5070073;28;20211;-56
2023/05/18 10:08:13;;;;;;;11.20;6.93;;;;;;;13.44;100.00;64366.28;5069974;28;20223;-57
2023/05/18 10:10:43;;;;;;;8.30;6.35;;;;;;;13.32;100.00;64350.59;5070074;28;20204;-57
2023/05/18 10:13:13;;;;;;;8.70;6.30;;;;;;;13.38;100.00;64359.72;5070181;28;20277;-56
2023/05/18 10:15:50;;;;;;;10.50;7.17;;;;;;;13.12;100.00;64330.63;5069949;28;20212;-60
2023/05/18 10:18:34;;;;;;;11.67;6.87;;;;;;;13.05;100.00;64323.47;5070516;28;20670;-59
2023/05/18 10:21:01;;;;;;;11.63;7.47;;;;;;;13.15;100.00;64331.41;5070070;28;20188;-59
2023/05/18 10:23:30;;;;;;;8.97;6.77;;;;;;;13.11;100.00;64327.53;5070391;28;20212;-58
2023/05/18 10:25:57;;;;;;;6.70;6.03;;;;;;;13.00;100.00;64318.00;5072611;28;20219;-59
2023/05/18 10:28:27;;;;;;;11.88;6.35;;;;;;;13.16;100.00;64332.47;5073848;28;20204;-59
2023/05/18 10:30:54;;;;;;;9.17;5.90;;;;;;;13.13;100.00;64332.25;5073487;28;20288;-57
2023/05/18 10:33:25;;;;;;;9.70;6.47;;;;;;;13.20;100.00;64336.88;5072654;28;20752;-55
2023/05/18 10:35:51;;;;;;;8.80;7.27;;;;;;;13.27;100.00;64345.09;5072943;28;20224;-56
2023/05/18 10:38:22;;;;;;;9.60;6.37;;;;;;;13.40;100.00;64359.38;5073310;28;20217;-57
2023/05/18 10:40:50;;;;;;;12.93;6.37;;;;;;;13.58;100.00;64381.13;5073199;28;20686;-57
2023/05/18 10:43:19;;;;;;;9.17;6.27;;;;;;;13.55;100.00;64374.75;5073302;28;20217;-55
2023/05/18 10:45:47;;;;;;;11.33;7.20;;;;;;;13.62;100.00;64382.41;5073052;28;20193;-57
2023/05/18 10:48:14;;;;;;;9.43;6.07;;;;;;;13.45;100.00;64364.84;5071932;28;20706;-57
2023/05/18 10:50:40;;;;;;;13.03;7.47;;;;;;;13.45;100.00;64367.38;5073097;28;20188;-57
2023/05/18 10:53:09;;;;;;;9.23;6.00;;;;;;;13.37;100.00;64361.13;5073235;28;20674;-56
2023/05/18 10:55:34;;;;;;;21.00;6.75;;;;;;;13.43;100.00;64362.66;5072793;28;20782;-57
2023/05/18 10:58:09;;;;;;;8.43;6.07;;;;;;;13.46;100.00;64365.41;5073260;28;20276;-57
2023/05/18 11:00:37;;;;;;;8.70;6.37;;;;;;;13.69;100.00;64392.66;5073162;28;20201;-57
2023/05/18 11:03:07;;;;;;;13.23;6.97;;;;;;;13.69;100.00;64390.66;5073132;28;20240;-57
2023/05/18 11:05:32;;;;;;;12.30;7.73;;;;;;;13.64;100.00;64385.16;5072965;28;20268;-56
2023/05/18 11:08:04;;;;;;;15.43;7.90;;;;;;;13.55;100.00;64377.28;5073078;28;20696;-56
2023/05/18 11:10:41;;;;;;;12.50;7.17;;;;;;;13.68;100.00;64389.56;5072954;28;20184;-57
2023/05/18 11:13:07;;;;;;;11.20;6.57;;;;;;;13.63;100.00;64386.59;5072654;28;20208;-57
2023/05/18 11:15:51;;;;;;;8.60;7.47;;;;;;;13.49;100.00;64368.72;5072635;28;20258;-58
2023/05/18 11:18:17;;;;;;;13.73;7.40;;;;;;;13.42;100.00;64366.63;5072892;28;20220;-57
2023/05/18 11:20:45;;;;;;;7.50;5.60;;;;;;;13.32;100.00;64350.59;5072646;28;20268;-56
2023/05/18 11:23:17;;;;;;;8.07;6.40;;;;;;;13.37;100.00;64358.59;5072558;28;20304;-56
2023/05/18 11:25:43;;;;;;;6.50;4.90;;;;;;;13.42;100.00;64364.09;5072652;28;20177;-60